Capt. Ted — WDD6210 — position and weather

sailwx.info

Track history (hours):
 
Tides and Currents Weather Stations Pressure Air Temp Water Temp Dewpoint Dewpoint Depression Visibility Wind Speed Wind Dir Waves Ship Positions

Capt. Ted

Owner: Salisbury Towing Corporation, Havre de Grace, MD. More information available from US FCC via Universal Licensing System and Coast Guard Vessel Documentation Center.

Last reported at 2014-Dec-21 08:06 UTC. Time now 2014-Dec-21 15:49 UTC.
Position N 38°35' W 077°13'.

Length 32 m; draft 2.8 m.

Type: Tug. MMSI: 367169710.

Date/timePositionNaut miles runAvg speedWind from/ knotsBaromVisibWave heightAir tempDewpointWater temp
2014-Dec-21 08:06N 38°35' W 077°13'42 4.4
2014-Dec-20 22:31N 38°07' W 076°33'6 5.9
2014-Dec-20 21:33N 38°04' W 076°27'4 3.5
2014-Dec-20 20:33N 38°02' W 076°24'5 4.7
2014-Dec-20 19:32N 37°59' W 076°19'  
2014-Dec-17 09:08N 37°58' W 076°17'5 8.6
2014-Dec-17 08:33N 38°01' W 076°22'8 8.3
2014-Dec-17 07:33N 38°06' W 076°30'44 3.4
2014-Dec-16 18:27N 38°35' W 077°13'42 5.2
2014-Dec-16 10:24N 38°07' W 076°33'6 6.8
2014-Dec-16 09:33N 38°04' W 076°27'7 6.7
2014-Dec-16 08:33N 37°60' W 076°20'4 0.1
2014-Dec-15 01:26N 37°58' W 076°17'7 8.0
2014-Dec-15 00:33N 38°02' W 076°24'8 7.6
2014-Dec-14 23:33N 38°07' W 076°32'0 0.0
2014-Dec-13 22:24N 38°07' W 076°32'5 5.8
2014-Dec-13 21:33N 38°04' W 076°27'5 5.4
2014-Dec-13 20:33N 38°00' W 076°21'  
Track history (hours):
 
Tides and Currents Weather Stations Pressure Air Temp Water Temp Dewpoint Dewpoint Depression Visibility Wind Speed Wind Dir Waves Ship Positions

Capt. Ted

Owner: Salisbury Towing Corporation, Havre de Grace, MD. More information available from US FCC via Universal Licensing System and Coast Guard Vessel Documentation Center.

Last reported at 2014-Dec-21 08:06 UTC. Time now 2014-Dec-21 15:49 UTC.
Position N 38°35' W 077°13'.

Length 32 m; draft 2.8 m.

Type: Tug. MMSI: 367169710.

Date/timePositionNaut miles runAvg speedWind from/ knotsBaromVisibWave heightAir tempDewpointWater temp
2014-Dec-21 08:06N 38°35' W 077°13'42 4.4
2014-Dec-20 22:31N 38°07' W 076°33'6 5.9
2014-Dec-20 21:33N 38°04' W 076°27'4 3.5
2014-Dec-20 20:33N 38°02' W 076°24'5 4.7
2014-Dec-20 19:32N 37°59' W 076°19'  
2014-Dec-17 09:08N 37°58' W 076°17'5 8.6
2014-Dec-17 08:33N 38°01' W 076°22'8 8.3
2014-Dec-17 07:33N 38°06' W 076°30'44 3.4
2014-Dec-16 18:27N 38°35' W 077°13'42 5.2
2014-Dec-16 10:24N 38°07' W 076°33'6 6.8
2014-Dec-16 09:33N 38°04' W 076°27'7 6.7
2014-Dec-16 08:33N 37°60' W 076°20'4 0.1
2014-Dec-15 01:26N 37°58' W 076°17'7 8.0
2014-Dec-15 00:33N 38°02' W 076°24'8 7.6
2014-Dec-14 23:33N 38°07' W 076°32'0 0.0
2014-Dec-13 22:24N 38°07' W 076°32'5 5.8
2014-Dec-13 21:33N 38°04' W 076°27'5 5.4
2014-Dec-13 20:33N 38°00' W 076°21'  

Dump ship's entire track history